Latest Weather Observations for Hughenden

IDQ60801

Issued at 9:02 am EST Tuesday 9 February 2016 (issued every 30 minutes, with the page automatically refreshed every 10 minutes)

About weather observations | Map of weather stations | Latest weather observations for QLD | Other Formats
Station Details ID: 030022 Name: HUGHENDEN AIRPORT Lat: -20.82 Lon: 144.23 Height: 316.4 m
Data from the previous 72 hours. | See also: Recent months at Hughenden
Date/Time
EST
Temp
°C
App
Temp
°C
Dew
Point
Rel
Hum
%
Delta-T
°C
Wind Press
QNH
hPa
Press
MSL
hPa
Rain
since 9 am
mm
Dir
 
Spd
km/h
Gust
km/h
Spd
kts
Gust
kts
09/09:00am 29.2 30.3 21.2 62 5.4 E 17 22 9 12 1012.1 1009.8 0.8
09/08:30am 28.4 28.9 20.9 64 5.0 E 19 26 10 14 1011.8 1009.5 0.8
09/08:00am 27.5 27.8 20.8 67 4.5 E 20 24 11 13 1011.8 1009.5 0.8
09/07:30am 26.7 27.0 20.5 69 4.1 E 19 24 10 13 1011.5 1009.2 0.8
09/07:00am 25.8 27.6 20.4 72 3.6 E 11 15 6 8 1011.4 1009.1 0.8
09/06:30am 24.9 26.2 20.2 75 3.1 ESE 13 19 7 10 1011.0 1008.7 0.8
09/06:00am 25.0 26.4 20.3 75 3.1 E 13 17 7 9 1010.5 1008.2 0.8
09/05:30am 25.3 26.3 20.3 74 3.3 E 15 19 8 10 1010.2 1007.8 0.8
09/05:00am 25.6 27.1 20.6 74 3.3 E 13 17 7 9 1010.2 1007.8 0.8
09/04:30am 25.7 27.9 21.1 76 3.1 E 11 15 6 8 1009.8 1007.5 0.8
09/04:00am 25.9 28.2 21.3 76 3.1 E 11 15 6 8 1009.6 1007.3 0.8
09/03:30am 26.0 27.8 21.2 75 3.2 E 13 17 7 9 1009.5 1007.2 0.8
09/03:00am 26.2 27.3 21.2 74 3.4 ENE 17 20 9 11 1009.1 1006.8 0.8
09/02:30am 25.0 27.4 21.5 81 2.3 E 11 13 6 7 1009.3 1007.0 0.8
09/02:00am 25.0 27.4 21.5 81 2.3 ESE 11 13 6 7 1009.8 1007.5 0.8
09/01:30am 24.9 27.2 21.4 81 2.3 SSE 11 13 6 7 1009.9 1007.6 0.8
09/01:00am 25.0 27.8 21.5 81 2.3 ESE 9 11 5 6 1010.3 1007.9 0.8
09/12:30am 25.4 28.4 21.3 78 2.7 SE 7 9 4 5 1010.6 1008.3 0.8
09/12:00am 25.5 28.0 21.0 76 3.0 ESE 9 13 5 7 1010.7 1008.4 0.8
 
Date/Time
EST
Temp
°C
App
Temp
°C
Dew
Point
Rel
Hum
%
Delta-T
°C
Wind Press
QNH
hPa
Press
MSL
hPa
Rain
since 9 am
mm
Dir
 
Spd
km/h
Gust
km/h
Spd
kts
Gust
kts
08/11:30pm 26.1 28.1 20.7 72 3.6 SE 11 15 6 8 1011.0 1008.7 0.8
08/11:00pm 26.8 29.1 20.6 69 4.1 E 9 15 5 8 1011.1 1008.8 0.8
08/10:30pm 27.0 28.4 20.3 66 4.4 E 13 17 7 9 1011.1 1008.8 0.8
08/10:00pm 27.0 29.2 20.3 66 4.4 NNE 9 11 5 6 1011.0 1008.7 0.8
08/09:30pm 27.0 29.3 20.6 68 4.3 NE 9 13 5 7 1010.8 1008.5 0.8
08/09:00pm 27.0 27.6 20.3 66 4.4 ENE 17 20 9 11 1010.4 1008.1 0.8
08/08:30pm 26.7 27.3 20.3 68 4.2 ENE 17 22 9 12 1010.1 1007.7 0.8
08/08:00pm 26.4 27.8 20.3 69 4.0 ENE 13 20 7 11 1009.4 1007.1 0.8
08/07:30pm 26.7 27.2 20.1 67 4.4 E 17 26 9 14 1009.3 1007.0 0.8
08/07:00pm 26.5 25.7 20.8 71 3.8 ESE 26 37 14 20 1009.3 1007.0 0.8
08/06:30pm 26.8 25.1 20.6 69 4.1 SE 30 39 16 21 1009.5 1007.2 0.8
08/06:00pm 26.6 25.4 20.9 71 3.8 SE 28 39 15 21 1009.0 1006.7 0.8
08/05:30pm 25.5 23.7 22.2 82 2.2 S 35 46 19 25 1008.4 1006.1 0.8
08/05:00pm 25.4 23.5 22.1 82 2.2 S 35 52 19 28 1008.3 1006.0 0.8
08/04:36pm 28.0 25.5 19.8 61 5.4 SW 32 50 17 27 1007.9 1005.6 0.0
08/04:30pm 29.1 27.5 19.1 54 6.6 SW 26 41 14 22 1007.9 1005.6 0.0
08/04:24pm 31.3 30.8 17.9 44 8.7 ESE 17 37 9 20 1007.7 1005.4 0.0
08/04:00pm 34.9 35.6 18.9 39 10.7 E 13 17 7 9 1007.1 1004.7 0.0
08/03:30pm 34.9 35.2 20.5 43 9.8 NE 19 30 10 16 1007.0 1004.6 0.0
08/03:00pm 32.9 33.2 20.4 47 8.4 NE 19 24 10 13 1007.5 1005.1 0.0
08/02:30pm 33.5 34.3 19.9 44 9.1 N 15 20 8 11 1008.0 1005.7 0.0
08/02:00pm 34.6 34.3 16.4 33 11.7 ENE 13 20 7 11 1008.2 1005.9 0.0
08/01:30pm 34.7 34.6 17.9 37 11.0 ESE 15 22 8 12 1008.8 1006.5 0.0
08/01:00pm 34.7 35.0 19.5 40 10.2 ESE 17 28 9 15 1008.9 1006.6 0.0
08/12:30pm 34.1 35.6 19.7 42 9.6 E 11 24 6 13 1009.4 1007.1 0.0
08/12:00pm 34.4 34.8 20.7 44 9.3 ENE 19 24 10 13 1010.2 1007.8 0.0
08/11:30am 34.1 34.6 21.9 49 8.4 NE 22 32 12 17 1010.9 1008.6 0.0
08/11:00am 32.4 31.9 20.0 48 8.3 ENE 22 30 12 16 1011.2 1008.9 0.0
08/10:30am 32.0 31.6 20.9 52 7.5 ENE 24 32 13 17 1011.5 1009.2 0.0
08/10:00am 31.9 32.1 22.0 55 6.8 ENE 24 33 13 18 1011.6 1009.3 0.0
08/09:30am 30.6 30.3 21.9 59 5.9 ENE 26 33 14 18 1011.5 1009.2 0.0
08/09:00am 29.5 29.7 22.0 64 5.1 ENE 24 33 13 18 1011.4 1009.1 0.2
08/08:30am 29.2 28.7 22.2 66 4.8 NE 28 33 15 18 1011.2 1008.9 0.2
08/08:00am 28.5 29.4 22.0 68 4.4 ENE 20 26 11 14 1011.1 1008.8 0.2
08/07:30am 28.4 29.3 21.9 68 4.4 ENE 20 30 11 16 1010.9 1008.6 0.2
08/07:00am 28.5 29.4 22.0 68 4.4 E 20 26 11 14 1010.5 1008.2 0.2
08/06:30am 27.7 28.7 21.7 70 4.1 ESE 19 24 10 13 1010.2 1007.8 0.2
08/06:00am 27.7 29.0 21.7 70 4.1 ESE 17 20 9 11 1009.7 1007.4 0.2
08/05:30am 27.7 29.6 21.3 68 4.3 ESE 13 17 7 9 1009.4 1007.1 0.2
08/05:00am 27.8 29.9 20.9 66 4.6 ESE 11 15 6 8 1009.2 1006.9 0.2
08/04:30am 28.1 29.6 20.6 63 5.0 ESE 13 19 7 10 1008.9 1006.6 0.2
08/04:00am 28.7 29.7 20.2 60 5.7 E 15 19 8 10 1008.7 1006.4 0.2
08/03:30am 28.7 31.0 19.9 59 5.8 N 7 13 4 7 1008.7 1006.4 0.2
08/03:00am 29.2 30.2 19.5 56 6.4 E 13 17 7 9 1008.5 1006.2 0.2
08/02:30am 29.5 29.6 19.2 54 6.8 ENE 17 24 9 13 1008.5 1006.2 0.2
08/02:00am 28.7 29.6 19.3 56 6.2 E 13 17 7 9 1008.6 1006.3 0.2
08/01:30am 28.5 29.0 19.2 57 6.1 ESE 15 19 8 10 1008.8 1006.5 0.2
08/01:00am 28.8 28.8 18.9 55 6.5 ESE 17 22 9 12 1009.2 1006.9 0.2
08/12:30am 28.9 29.0 18.4 53 6.8 ESE 15 19 8 10 1009.4 1007.1 0.2
08/12:00am 29.5 28.7 18.0 50 7.4 E 19 24 10 13 1009.5 1007.2 0.2
 
Date/Time
EST
Temp
°C
App
Temp
°C
Dew
Point
Rel
Hum
%
Delta-T
°C
Wind Press
QNH
hPa
Press
MSL
hPa
Rain
since 9 am
mm
Dir
 
Spd
km/h
Gust
km/h
Spd
kts
Gust
kts
07/11:30pm 29.7 28.7 17.5 48 7.8 ESE 19 24 10 13 1009.5 1007.2 0.2
07/11:00pm 29.9 28.9 18.0 48 7.7 ESE 20 26 11 14 1009.6 1007.3 0.0
07/10:30pm 30.5 29.6 18.2 47 8.0 E 20 26 11 14 1009.6 1007.3 0.0
07/10:00pm 30.1 29.5 18.5 49 7.6 ESE 19 22 10 12 1009.5 1007.2 0.0
07/09:30pm 30.6 29.7 18.3 47 8.0 SE 20 26 11 14 1009.2 1006.9 0.0
07/09:00pm 31.1 31.8 18.8 48 8.1 SE 13 17 7 9 1008.8 1006.5 0.0
07/08:30pm 31.2 32.3 18.9 48 8.1 SE 11 13 6 7 1008.5 1006.2 0.0
07/08:00pm 31.4 32.7 18.4 46 8.5 ESE 9 11 5 6 1008.2 1005.9 0.0
07/07:30pm 32.7 34.1 17.7 40 9.7 SE 7 11 4 6 1007.8 1005.5 0.0
07/07:00pm 33.7 35.0 17.0 37 10.8 SE 6 11 3 6 1007.2 1004.8 0.0
07/06:30pm 34.7 35.4 16.1 33 11.9 SE 7 9 4 5 1006.6 1004.3 0.0
07/06:00pm 35.8 35.9 15.5 29 12.9 SE 9 13 5 7 1006.2 1003.9 0.0
07/05:30pm 35.6 34.7 15.9 31 12.6 SE 15 19 8 10 1005.9 1003.6 0.0
07/05:00pm 36.3 36.6 17.0 32 12.6 SE 11 17 6 9 1005.7 1003.4 0.0
07/04:30pm 36.3 37.9 15.9 29 13.1 NE 2 9 1 5 1005.4 1003.1 0.0
07/04:00pm 36.2 37.0 17.4 33 12.3 WSW 9 13 5 7 1005.5 1003.2 0.0
07/03:30pm 35.6 34.5 15.3 29 12.9 S 15 20 8 11 1005.8 1003.5 0.0
07/03:00pm 35.9 36.2 16.1 30 12.7 E 9 17 5 9 1006.1 1003.8 0.0
07/02:30pm 36.2 37.2 16.4 31 12.8 WSW 6 9 3 5 1006.5 1004.2 0.0
07/02:00pm 36.0 37.3 17.2 33 12.3 WNW 6 17 3 9 1007.0 1004.6 0.0
07/01:30pm 35.2 36.1 16.0 31 12.3 WNW 6 15 3 8 1007.5 1005.1 0.0
07/01:00pm 35.1 34.6 16.9 34 11.8 S 15 19 8 10 1007.8 1005.5 0.0
07/12:30pm 34.3 35.2 17.5 36 10.9 S 9 19 5 10 1008.2 1005.9 0.0
07/12:00pm 34.2 36.2 17.8 37 10.7 N 4 9 2 5 1008.3 1006.0 0.0
07/11:30am 33.9 35.6 18.4 40 10.2 SSE 7 15 4 8 1008.6 1006.3 0.0
07/11:00am 32.9 34.5 18.3 42 9.6 NNE 7 13 4 7 1008.8 1006.5 0.0
07/10:30am 32.3 34.6 19.5 46 8.5 N 6 7 3 4 1008.7 1006.4 0.0
07/10:00am 31.7 35.5 20.9 52 7.3 WNW 2 7 1 4 1008.7 1006.4 0.0
07/09:30am 30.6 34.0 21.7 59 6.1 N 6 9 3 5 1008.8 1006.5 0.0
07/09:00am 29.6 32.6 21.3 61 5.6 NE 7 11 4 6 1008.8 1006.5 0.0
07/08:30am 28.7 33.6 22.4 68 4.3 CALM 0 6 0 3 1008.7 1006.4 0.0
07/08:00am 27.9 32.4 22.2 71 3.9 SE 2 6 1 3 1008.6 1006.3 0.0
07/07:30am 27.2 31.6 22.8 77 3.0 ENE 4 7 2 4 1008.5 1006.2 0.0
07/07:00am 25.8 29.8 22.7 83 2.1 SE 6 6 3 3 1008.3 1006.0 0.0
07/06:30am 24.6 28.2 22.1 86 1.7 SE 6 7 3 4 1007.8 1005.5 0.0
07/06:00am 24.0 27.2 21.7 87 1.5 SE 7 9 4 5 1007.5 1005.1 0.0
07/05:30am 24.1 27.0 21.8 87 1.5 SSE 9 13 5 7 1007.0 1004.6 0.0
07/05:00am 24.3 28.8 21.6 85 1.8 CALM 0 0 0 0 1006.4 1004.1 0.0
07/04:30am 24.5 29.1 21.8 85 1.8 CALM 0 0 0 0 1006.3 1004.0 0.0
07/04:00am 24.7 29.3 21.8 84 2.0 CALM 0 4 0 2 1006.2 1003.9 0.0
07/03:30am 24.7 27.9 21.6 83 2.1 SSE 7 9 4 5 1006.0 1003.7 0.0
07/03:00am 25.1 28.0 21.8 82 2.2 SE 9 11 5 6 1005.9 1003.6 0.0
07/02:30am 25.4 28.5 22.1 82 2.2 ESE 9 11 5 6 1006.2 1003.9 0.0
07/02:00am 25.3 28.2 21.8 81 2.4 E 9 11 5 6 1006.5 1004.2 0.0
07/01:30am 25.4 28.1 21.3 78 2.7 E 9 11 5 6 1006.6 1004.3 0.0
07/01:00am 26.1 28.0 21.3 75 3.2 E 13 15 7 8 1006.9 1004.5 0.0
07/12:30am 26.2 27.8 20.8 72 3.6 ESE 13 15 7 8 1007.2 1004.8 0.0
07/12:00am 26.3 27.6 20.2 69 4.0 SE 13 17 7 9 1007.4 1005.0 0.0
 
Date/Time
EST
Temp
°C
App
Temp
°C
Dew
Point
Rel
Hum
%
Delta-T
°C
Wind Press
QNH
hPa
Press
MSL
hPa
Rain
since 9 am
mm
Dir
 
Spd
km/h
Gust
km/h
Spd
kts
Gust
kts
06/11:30pm 25.3 27.9 20.5 75 3.2 SE 7 9 4 5 1007.4 1005.0 0.0
06/11:00pm 26.0 30.2 21.0 74 3.3 CALM 0 7 0 4 1007.3 1004.9 0.0
06/10:30pm 25.7 29.3 19.8 70 3.9 CALM 0 0 0 0 1007.2 1004.8 0.0
06/10:00pm 26.5 30.4 20.3 68 4.1 CALM 0 0 0 0 1007.0 1004.6 0.0
06/09:30pm 27.3 31.1 20.1 64 4.8 CALM 0 0 0 0 1006.5 1004.2 0.0
06/09:00pm 28.3 30.1 18.4 55 6.4 WSW 6 7 3 4 1006.0 1003.7 0.0
06/08:30pm 28.8 30.2 17.7 51 7.1 WSW 7 9 4 5 1005.8 1003.5 0.0
06/08:00pm 29.5 29.8 17.0 47 8.0 WSW 11 13 6 7 1005.7 1003.4 0.0
06/07:30pm 30.9 30.1 16.1 41 9.3 WSW 15 20 8 11 1005.3 1003.0 0.0
06/07:00pm 32.1 30.3 15.6 37 10.4 WSW 19 24 10 13 1004.9 1002.6 0.0
06/06:30pm 33.1 31.7 15.6 35 11.1 W 17 24 9 13 1004.5 1002.1 0.0
06/06:00pm 34.1 31.6 14.1 30 12.4 WSW 20 28 11 15 1004.0 1001.6 0.0
06/05:30pm 34.3 33.0 15.7 32 11.8 W 17 26 9 14 1003.8 1001.4 0.0
06/05:00pm 34.3 34.1 17.5 36 11.0 W 15 20 8 11 1003.3 1001.0 0.0
06/04:30pm 34.7 33.3 16.5 33 11.7 W 19 26 10 14 1003.3 1001.0 0.0
06/04:00pm 33.2 31.6 16.5 36 10.7 W 20 30 11 16 1003.3 1001.0 0.0
06/03:30pm 33.9 34.2 18.8 41 10.0 WSW 15 24 8 13 1003.6 1001.2 0.0
06/03:00pm 33.9 33.1 18.4 40 10.2 W 20 28 11 15 1003.7 1001.3 0.0
06/02:30pm 32.8 33.0 18.6 43 9.3 W 15 24 8 13 1004.0 1001.6 0.0
06/02:00pm 33.0 33.6 19.5 45 9.0 W 15 26 8 14 1004.4 1002.0 0.0
06/01:30pm 32.3 33.5 19.9 48 8.3 W 13 20 7 11 1004.7 1002.4 0.0
06/01:00pm 31.6 32.5 19.2 47 8.2 SW 13 24 7 13 1005.0 1002.7 0.0
06/12:30pm 31.4 33.0 20.0 50 7.6 WNW 11 20 6 11 1005.3 1003.0 0.0
06/12:00pm 31.6 34.4 20.5 51 7.5 WSW 6 13 3 7 1005.6 1003.3 0.0
06/11:30am 31.0 32.7 19.4 50 7.7 W 9 17 5 9 1005.8 1003.5 0.0
06/11:00am 30.6 33.7 21.4 58 6.3 WNW 7 19 4 10 1006.0 1003.7 0.0
06/10:30am 29.1 31.6 21.1 62 5.4 W 9 15 5 8 1006.2 1003.9 0.0
06/10:00am 28.5 31.6 21.5 66 4.7 WNW 7 11 4 6 1006.3 1004.0 0.0
06/09:30am 27.3 31.2 21.1 69 4.2 WSW 2 9 1 5 1006.3 1004.0 0.0

Other Formats:

Comma delimited format used in spreadsheet applications
http://www.bom.gov.au/fwo/IDQ60801/IDQ60801.94343.axf

JavaScript Object Notation format (JSON) in row-major order
http://www.bom.gov.au/fwo/IDQ60801/IDQ60801.94343.json